createdAt,value
2018-10-17T00:00:14.482Z,99.99
2018-10-17T00:01:14.677Z,99.99
2018-10-17T00:02:14.459Z,99.8
2018-10-17T00:03:14.210Z,99.9
2018-10-17T00:04:14.450Z,99.71
2018-10-17T00:05:14.809Z,99.99
2018-10-17T00:06:14.438Z,99.99
2018-10-17T00:07:14.321Z,99.99
2018-10-17T00:08:14.441Z,99.99
2018-10-17T00:09:14.178Z,99.71
2018-10-17T00:10:14.436Z,99.99
2018-10-17T00:11:14.584Z,99.8
2018-10-17T00:12:14.425Z,99.99
2018-10-17T00:13:14.274Z,99.99
2018-10-17T00:14:14.432Z,99.42
2018-10-17T00:15:14.168Z,99.99
2018-10-17T00:16:14.159Z,99.9
2018-10-17T00:17:14.219Z,99.71
2018-10-17T00:18:14.415Z,99.61
2018-10-17T00:19:14.613Z,99.99
2018-10-17T00:20:14.395Z,98.9
2018-10-17T00:21:14.137Z,99.28
2018-10-17T00:22:14.128Z,99.04
2018-10-17T00:23:14.197Z,98.8
2018-10-17T00:24:14.405Z,98.32
2018-10-17T00:25:14.138Z,98.32
2018-10-17T00:26:14.396Z,98.13
2018-10-17T00:27:14.374Z,97.66
2018-10-17T00:28:14.112Z,98.03
2018-10-17T00:29:14.705Z,96.89
2018-10-17T00:30:14.107Z,96.89
2018-10-17T00:31:14.622Z,97.18
2018-10-17T00:32:14.360Z,96.89
2018-10-17T00:33:14.606Z,96.7
2018-10-17T00:34:14.353Z,96.89
2018-10-17T00:35:14.597Z,96.8
2018-10-17T00:36:14.088Z,96.89
2018-10-17T00:37:14.203Z,96.89
2018-10-17T00:38:14.088Z,97.47
2018-10-17T00:39:14.354Z,97.18
2018-10-17T00:40:14.399Z,97.47
2018-10-17T00:41:14.641Z,96.42
2018-10-17T00:42:14.073Z,97.56
2018-10-17T00:43:14.139Z,96.8
2018-10-17T00:44:14.342Z,96.89
2018-10-17T00:45:14.065Z,96.42
2018-10-17T00:46:14.059Z,96.42
2018-10-17T00:47:14.210Z,96.75
2018-10-17T00:48:14.304Z,96.03
2018-10-17T00:49:14.093Z,96.22
2018-10-17T00:50:14.316Z,95.84
2018-10-17T00:51:14.309Z,96.32
2018-10-17T00:52:14.306Z,96.13
2018-10-17T00:53:14.142Z,96.22
2018-10-17T00:54:14.292Z,96.42
2018-10-17T00:55:14.645Z,97.18
2018-10-17T00:56:14.286Z,96.84
2018-10-17T00:57:14.279Z,96.56
2018-10-17T00:58:14.282Z,96.84
2018-10-17T00:59:14.532Z,97.13
2018-10-17T01:00:14.277Z,96.84
2018-10-17T01:01:14.548Z,97.61
2018-10-17T01:02:14.265Z,97.71
2018-10-17T01:03:14.005Z,97.99
2018-10-17T01:04:14.284Z,97.22
2018-10-17T01:05:14.466Z,97.61
2018-10-17T01:06:14.002Z,98.27
2018-10-17T01:07:14.072Z,97.99
2018-10-17T01:08:13.997Z,98.27
2018-10-17T01:09:14.233Z,98.47
2018-10-17T01:10:14.239Z,98.37
2018-10-17T01:11:14.057Z,98.75
2018-10-17T01:12:14.238Z,99.13
2018-10-17T01:13:14.364Z,98.85
2018-10-17T01:14:13.967Z,98.85
2018-10-17T01:15:13.965Z,99.32
2018-10-17T01:16:14.290Z,98.66
2018-10-17T01:17:14.547Z,97.71
2018-10-17T01:18:14.205Z,97.99
2018-10-17T01:19:14.531Z,98.27
2018-10-17T01:20:14.200Z,98.47
2018-10-17T01:21:13.964Z,98.85
2018-10-17T01:22:14.193Z,98.85
2018-10-17T01:23:14.395Z,98.66
2018-10-17T01:24:14.186Z,98.08
2018-10-17T01:25:14.005Z,97.22
2018-10-17T01:26:13.920Z,97.22
2018-10-17T01:27:14.174Z,96.75
2018-10-17T01:28:14.178Z,96.37
2018-10-17T01:29:14.017Z,96.37
2018-10-17T01:30:14.161Z,95.79
2018-10-17T01:31:14.436Z,96.84
2018-10-17T01:32:14.165Z,96.37
2018-10-17T01:33:14.151Z,95.41
2018-10-17T01:34:16.821Z,95.12
2018-10-17T01:35:14.422Z,95.32
2018-10-17T01:36:13.937Z,96.08
2018-10-17T01:37:14.008Z,95.32
2018-10-17T01:38:14.141Z,96.17
2018-10-17T01:39:14.134Z,95.98
2018-10-17T01:40:14.156Z,95.79
2018-10-17T01:41:13.989Z,96.08
2018-10-17T01:42:14.117Z,95.22
2018-10-17T01:43:14.425Z,95.32
2018-10-17T01:44:14.119Z,95.22
2018-10-17T01:45:14.114Z,95.61
2018-10-17T01:46:14.118Z,95.94
2018-10-17T01:47:14.323Z,96.75
2018-10-17T01:48:14.105Z,95.79
2018-10-17T01:49:14.249Z,96.84
2018-10-17T01:50:14.099Z,96.03
2018-10-17T01:51:14.079Z,95.79
2018-10-17T01:52:14.081Z,96.32
2018-10-17T01:53:14.379Z,96.13
2018-10-17T01:54:14.080Z,96.22
2018-10-17T01:55:13.840Z,96.27
2018-10-17T01:56:14.067Z,96.03
2018-10-17T01:57:13.803Z,96.22
2018-10-17T01:58:14.062Z,96.8
2018-10-17T01:59:14.202Z,97.08
2018-10-17T02:00:14.064Z,97.75
2018-10-17T02:01:14.230Z,97.85
2018-10-17T02:02:14.039Z,98.42
2018-10-17T02:03:14.047Z,97.75
2018-10-17T02:04:14.029Z,98.42
2018-10-17T02:05:13.907Z,98.61
2018-10-17T02:06:14.029Z,99.08
2018-10-17T02:07:14.354Z,99.27
2018-10-17T02:08:14.013Z,99.66
2018-10-17T02:09:14.017Z,99.46
2018-10-17T02:10:13.748Z,99.46
2018-10-17T02:11:13.801Z,99.46
2018-10-17T02:12:13.742Z,99.6
2018-10-17T02:13:14.205Z,99.99
2018-10-17T02:14:13.985Z,99.99
2018-10-17T02:15:13.978Z,99.99
2018-10-17T02:16:13.719Z,99.99
2018-10-17T02:17:13.785Z,99.99
2018-10-17T02:18:13.718Z,99.99
2018-10-17T02:19:14.251Z,99.99
2018-10-17T02:20:13.964Z,99.99
2018-10-17T02:21:13.966Z,99.99
2018-10-17T02:22:13.696Z,99.99
2018-10-17T02:23:14.167Z,99.99
2018-10-17T02:24:13.951Z,99.99
2018-10-17T02:25:13.725Z,99.99
2018-10-17T02:26:13.669Z,99.99
2018-10-17T02:27:13.920Z,99.99
2018-10-17T02:28:13.923Z,99.99
2018-10-17T02:29:14.103Z,99.99
2018-10-17T02:30:13.649Z,99.99
2018-10-17T02:31:13.758Z,99.99
2018-10-17T02:32:13.910Z,99.99
2018-10-17T02:33:13.898Z,99.99
2018-10-17T02:34:13.637Z,99.99
2018-10-17T02:35:14.181Z,99.99
2018-10-17T02:36:13.641Z,99.99
2018-10-17T02:37:14.129Z,99.99
2018-10-17T02:38:13.872Z,99.99
2018-10-17T02:39:13.951Z,99.99
2018-10-17T02:40:13.860Z,99.99
2018-10-17T02:41:14.117Z,99.8
2018-10-17T02:42:13.849Z,99.99
2018-10-17T02:43:14.133Z,99.99
2018-10-17T02:44:13.579Z,99.6
2018-10-17T02:45:13.577Z,99.8
2018-10-17T02:46:13.828Z,99.99
2018-10-17T02:47:13.912Z,99.99
2018-10-17T02:48:13.820Z,99.51
2018-10-17T02:49:13.620Z,99.13
2018-10-17T02:50:13.821Z,99.13
2018-10-17T02:51:13.815Z,98.85
2018-10-17T02:52:13.825Z,98.75
2018-10-17T02:53:14.013Z,98.27
2018-10-17T02:54:13.786Z,98.56
2018-10-17T02:55:13.963Z,98.46
2018-10-17T02:56:13.796Z,97.8
2018-10-17T02:57:13.776Z,97.51
2018-10-17T02:58:13.786Z,97.41
2018-10-17T02:59:14.074Z,97.7
2018-10-17T03:00:13.522Z,97.51
2018-10-17T03:01:14.035Z,98.08
2018-10-17T03:02:13.752Z,99.22
2018-10-17T03:03:13.750Z,98.27
2018-10-17T03:04:13.488Z,97.41
2018-10-17T03:05:13.918Z,97.03
2018-10-17T03:06:13.748Z,96.75
2018-10-17T03:07:14.023Z,96.84
2018-10-17T03:08:13.472Z,97.61
2018-10-17T03:09:13.730Z,97.41
2018-10-17T03:10:13.719Z,97.7
2018-10-17T03:11:13.600Z,97.7
2018-10-17T03:12:13.460Z,97.61
2018-10-17T03:13:13.940Z,98.18
2018-10-17T03:14:13.439Z,97.99
2018-10-17T03:15:13.704Z,98.36
2018-10-17T03:16:13.702Z,98.36
2018-10-17T03:17:13.946Z,98.46
2018-10-17T03:18:13.678Z,98.94
2018-10-17T03:19:13.918Z,98.36
2018-10-17T03:20:13.483Z,98.56
2018-10-17T03:21:13.664Z,98.18
2018-10-17T03:22:13.666Z,98.27
2018-10-17T03:23:13.881Z,97.89
2018-10-17T03:24:13.670Z,97.99
2018-10-17T03:25:13.841Z,98.46
2018-10-17T03:26:13.388Z,98.27
2018-10-17T03:27:13.648Z,98.36
2018-10-17T03:28:13.768Z,98.18
2018-10-17T03:29:13.883Z,98.46
2018-10-17T03:30:13.629Z,97.89
2018-10-17T03:31:13.923Z,98.36
2018-10-17T03:32:13.369Z,98.46
2018-10-17T03:33:13.619Z,98.36
2018-10-17T03:34:13.624Z,98.27
2018-10-17T03:35:13.451Z,97.99
2018-10-17T03:36:13.625Z,98.94
2018-10-17T03:37:13.819Z,98.27
2018-10-17T03:38:13.599Z,97.89
2018-10-17T03:39:13.344Z,98.36
2018-10-17T03:40:13.600Z,98.56
2018-10-17T03:41:13.832Z,98.94
2018-10-17T03:42:13.591Z,98.94
2018-10-17T03:43:13.905Z,99.04
2018-10-17T03:44:13.327Z,98.94
2018-10-17T03:45:13.331Z,99.18
2018-10-17T03:46:13.310Z,99.08
2018-10-17T03:47:13.983Z,99.08
2018-10-17T03:48:13.582Z,98.94
2018-10-17T03:49:13.867Z,98.94
2018-10-17T03:50:13.289Z,99.08
2018-10-17T03:51:13.288Z,99.18
2018-10-17T03:52:13.293Z,99.18
2018-10-17T03:53:13.860Z,99.46
2018-10-17T03:54:13.284Z,99.94
2018-10-17T03:55:13.904Z,99.99
2018-10-17T03:56:13.539Z,99.99
2018-10-17T03:57:13.267Z,99.99
2018-10-17T03:58:13.259Z,99.99
2018-10-17T03:59:13.843Z,99.99
2018-10-17T04:00:13.505Z,99.99
2018-10-17T04:01:13.281Z,99.99
2018-10-17T04:02:13.496Z,99.99
2018-10-17T04:03:13.845Z,99.99
2018-10-17T04:04:13.228Z,99.99
2018-10-17T04:05:13.787Z,99.99
2018-10-17T04:06:13.502Z,99.99
2018-10-17T04:07:13.721Z,99.99
2018-10-17T04:08:13.240Z,99.99
2018-10-17T04:09:13.203Z,99.99
2018-10-17T04:10:13.465Z,99.99
2018-10-17T04:11:13.628Z,99.99
2018-10-17T04:12:13.446Z,99.99
2018-10-17T04:13:13.305Z,99.99
2018-10-17T04:14:13.180Z,99.99
2018-10-17T04:15:13.440Z,99.99
2018-10-17T04:16:13.440Z,99.99
2018-10-17T04:17:13.770Z,99.99
2018-10-17T04:18:13.175Z,99.99
2018-10-17T04:19:13.288Z,99.99
2018-10-17T04:20:13.427Z,99.99
2018-10-17T04:21:13.416Z,99.99
2018-10-17T04:22:13.139Z,99.99
2018-10-17T04:23:13.663Z,99.99
2018-10-17T04:24:13.421Z,99.99
2018-10-17T04:25:13.704Z,99.99
2018-10-17T04:26:13.121Z,99.99
2018-10-17T04:27:13.394Z,99.99
2018-10-17T04:28:13.118Z,99.99
2018-10-17T04:29:13.630Z,99.99
2018-10-17T04:30:13.364Z,99.99
2018-10-17T04:31:13.556Z,99.99
2018-10-17T04:32:13.095Z,99.99
2018-10-17T04:33:13.358Z,99.99
2018-10-17T04:34:13.343Z,99.99
2018-10-17T04:35:13.600Z,99.99
2018-10-17T04:36:13.546Z,99.99
2018-10-17T04:37:13.467Z,99.99
2018-10-17T04:38:13.070Z,99.99
2018-10-17T04:39:13.325Z,99.99
2018-10-17T04:40:13.069Z,99.99
2018-10-17T04:41:13.601Z,99.99
2018-10-17T04:42:13.050Z,99.99
2018-10-17T04:43:13.442Z,99.99
2018-10-17T04:44:13.306Z,99.99
2018-10-17T04:45:13.307Z,99.99
2018-10-17T04:46:13.041Z,99.99
2018-10-17T04:47:13.572Z,99.99
2018-10-17T04:48:13.046Z,99.99
2018-10-17T04:49:13.573Z,99.99
2018-10-17T04:50:13.284Z,99.99
2018-10-17T04:51:13.278Z,99.99
2018-10-17T04:52:13.003Z,99.99
2018-10-17T04:53:13.611Z,99.99
2018-10-17T04:54:13.257Z,99.99
2018-10-17T04:55:13.546Z,99.99
2018-10-17T04:56:13.259Z,99.99
2018-10-17T04:57:13.299Z,99.99
2018-10-17T04:58:13.315Z,99.99
2018-10-17T04:59:13.511Z,99.99
2018-10-17T05:00:13.243Z,99.99
2018-10-17T05:01:13.073Z,99.99
2018-10-17T05:02:13.220Z,99.99
2018-10-17T05:03:13.224Z,99.99
2018-10-17T05:04:12.948Z,99.99
2018-10-17T05:05:13.453Z,99.99
2018-10-17T05:06:13.199Z,99.99
2018-10-17T05:07:13.385Z,99.99
2018-10-17T05:08:13.197Z,99.99
2018-10-17T05:09:13.206Z,99.99
2018-10-17T05:10:12.968Z,99.99
2018-10-17T05:11:13.432Z,99.99
2018-10-17T05:12:13.163Z,99.99
2018-10-17T05:13:13.318Z,99.99
2018-10-17T05:14:13.157Z,99.99
2018-10-17T05:15:13.277Z,99.99
2018-10-17T05:16:12.902Z,99.99
2018-10-17T05:17:13.031Z,99.99
2018-10-17T05:18:13.151Z,99.99
2018-10-17T05:19:13.359Z,99.99
2018-10-17T05:20:13.324Z,99.99
2018-10-17T05:21:12.892Z,99.99
2018-10-17T05:22:13.132Z,99.99
2018-10-17T05:23:13.063Z,99.99
2018-10-17T05:24:12.873Z,99.99
2018-10-17T05:25:13.469Z,99.99
2018-10-17T05:26:13.103Z,99.99
2018-10-17T05:27:13.104Z,99.99
2018-10-17T05:28:13.101Z,99.99
2018-10-17T05:29:13.343Z,99.99
2018-10-17T05:30:13.103Z,99.99
2018-10-17T05:31:12.878Z,99.99
2018-10-17T05:32:13.074Z,99.99
2018-10-17T05:33:12.822Z,99.99
2018-10-17T05:34:13.079Z,99.99
2018-10-17T05:35:12.996Z,99.99
2018-10-17T05:36:13.064Z,99.99
2018-10-17T05:37:13.451Z,99.99
2018-10-17T05:38:13.185Z,99.99
2018-10-17T05:39:13.047Z,99.99
2018-10-17T05:40:12.784Z,99.99
2018-10-17T05:41:13.261Z,99.99
2018-10-17T05:42:12.767Z,99.99
2018-10-17T05:43:13.323Z,99.99
2018-10-17T05:44:13.050Z,99.99
2018-10-17T05:45:12.755Z,99.99
2018-10-17T05:46:13.012Z,99.99
2018-10-17T05:47:13.327Z,99.99
2018-10-17T05:48:12.746Z,99.99
2018-10-17T05:49:13.214Z,99.99
2018-10-17T05:50:12.994Z,99.99
2018-10-17T05:51:12.733Z,99.99
2018-10-17T05:52:12.987Z,99.99
2018-10-17T05:53:13.161Z,99.99
2018-10-17T05:54:12.976Z,99.99
2018-10-17T05:55:13.343Z,99.99
2018-10-17T05:56:12.712Z,99.99
2018-10-17T05:57:12.972Z,99.94
2018-10-17T05:58:12.951Z,99.99
2018-10-17T05:59:13.181Z,99.99
2018-10-17T06:00:12.723Z,99.99
2018-10-17T06:01:13.207Z,99.99
2018-10-17T06:02:12.808Z,99.99
2018-10-17T06:03:12.924Z,99.99
2018-10-17T06:04:12.923Z,99.84
2018-10-17T06:05:13.171Z,99.94
2018-10-17T06:06:12.919Z,98.79
2018-10-17T06:07:13.218Z,99.99
2018-10-17T06:08:12.904Z,99.18
2018-10-17T06:09:12.638Z,99.27
2018-10-17T06:10:13.009Z,98.99
2018-10-17T06:11:13.139Z,98.89
2018-10-17T06:12:12.904Z,99.99
2018-10-17T06:13:13.011Z,99.99
2018-10-17T06:14:12.869Z,99.27
2018-10-17T06:15:12.875Z,99.75
2018-10-17T06:16:12.872Z,99.99
2018-10-17T06:17:12.941Z,98.99
2018-10-17T06:18:12.601Z,98.89
2018-10-17T06:19:13.119Z,98.99
2018-10-17T06:20:12.860Z,99.65
2018-10-17T06:21:12.584Z,99.18
2018-10-17T06:22:12.838Z,99.08
2018-10-17T06:23:13.085Z,98.89
2018-10-17T06:24:12.827Z,98.89
2018-10-17T06:25:13.018Z,99.18
2018-10-17T06:26:12.828Z,98.6
2018-10-17T06:27:12.816Z,98.89
2018-10-17T06:28:12.568Z,99.18
2018-10-17T06:29:13.049Z,98.41
2018-10-17T06:30:12.544Z,98.22
2018-10-17T06:31:13.023Z,99.08
2018-10-17T06:32:12.792Z,98.6
2018-10-17T06:33:12.777Z,99.18
2018-10-17T06:34:13.112Z,98.79
2018-10-17T06:35:12.959Z,98.99
2018-10-17T06:36:12.535Z,98.22
2018-10-17T06:37:12.954Z,98.7
2018-10-17T06:38:12.503Z,98.22
2018-10-17T06:39:12.764Z,98.22
2018-10-17T06:40:12.756Z,98.89
2018-10-17T06:41:13.001Z,99.08
2018-10-17T06:42:12.735Z,98.99
2018-10-17T06:43:12.999Z,99.08
2018-10-17T06:44:12.926Z,98.89
2018-10-17T06:45:12.716Z,98.7
2018-10-17T06:46:12.710Z,98.36
2018-10-17T06:47:12.932Z,97.03
2018-10-17T06:48:12.707Z,96.56
2018-10-17T06:49:12.986Z,96.27
2018-10-17T06:50:12.692Z,95.98
2018-10-17T06:51:12.829Z,95.32
2018-10-17T06:52:12.682Z,95.41
2018-10-17T06:53:12.502Z,95.22
2018-10-17T06:54:12.782Z,95.98
2018-10-17T06:55:12.493Z,95.7
2018-10-17T06:56:12.666Z,94.93
2018-10-17T06:57:12.672Z,94.74
2018-10-17T06:58:12.415Z,94.37
2018-10-17T06:59:13.044Z,93.41
2018-10-17T07:00:12.393Z,93.41
2018-10-17T07:01:12.452Z,93.32
2018-10-17T07:02:12.426Z,93.7
2018-10-17T07:03:12.644Z,93.41
2018-10-17T07:04:12.629Z,92.79
2018-10-17T07:05:12.992Z,91.17
2018-10-17T07:06:12.625Z,91.17
2018-10-17T07:07:13.060Z,89.36
2018-10-17T07:08:12.631Z,86.2
2018-10-17T07:09:12.614Z,83.18
2018-10-17T07:10:12.644Z,81.13
2018-10-17T07:11:12.478Z,77.72
2018-10-17T07:12:12.601Z,75.52
2018-10-17T07:13:12.701Z,74.9
2018-10-17T07:14:12.597Z,73.21
2018-10-17T07:15:12.640Z,71.62
2018-10-17T07:16:12.355Z,70.47
2018-10-17T07:17:12.740Z,69.54
2018-10-17T07:18:12.592Z,68.4
2018-10-17T07:19:12.798Z,67.82
2018-10-17T07:20:12.598Z,67.38
2018-10-17T07:21:12.595Z,66.61
2018-10-17T07:22:12.595Z,65.59
2018-10-17T07:23:12.738Z,64.82
2018-10-17T07:24:12.340Z,64.25
2018-10-17T07:25:12.827Z,64.05
2018-10-17T07:26:12.341Z,63.96
2018-10-17T07:27:12.616Z,63.89
2018-10-17T07:28:12.358Z,62.93
2018-10-17T07:29:12.764Z,62.84
2018-10-17T07:30:12.648Z,62.26
2018-10-17T07:31:13.743Z,61.49
2018-10-17T07:32:12.604Z,60.92
2018-10-17T07:33:12.355Z,60.95
2018-10-17T07:34:12.608Z,61.43
2018-10-17T07:35:12.688Z,60.75
2018-10-17T07:36:12.447Z,60.95
2018-10-17T07:37:12.360Z,61.14
2018-10-17T07:38:12.617Z,60.57
2018-10-17T07:39:12.624Z,60.11
2018-10-17T07:40:12.745Z,59.73
2018-10-17T07:41:12.616Z,59.44
2018-10-17T07:42:12.748Z,59.34
2018-10-17T07:43:12.637Z,59.44
2018-10-17T07:44:12.379Z,59.06
2018-10-17T07:45:12.506Z,59.34
2018-10-17T07:46:12.381Z,58.87
2018-10-17T07:47:12.650Z,58.51
2018-10-17T07:48:12.810Z,58.22
2018-10-17T07:49:12.637Z,58.22
2018-10-17T07:50:12.530Z,59.38
2018-10-17T07:51:12.644Z,58.96
2018-10-17T07:52:12.391Z,58.42
2018-10-17T07:53:12.498Z,58.13
2018-10-17T07:54:12.954Z,57.93
2018-10-17T07:55:12.646Z,58.13
2018-10-17T07:56:12.650Z,57.45
2018-10-17T07:57:12.674Z,58.22
2018-10-17T07:58:12.406Z,57.93
2018-10-17T07:59:12.402Z,58.03
2018-10-17T08:00:12.931Z,57.26
2018-10-17T08:01:12.665Z,57.75
2018-10-17T08:02:12.655Z,58.13
2018-10-17T08:03:12.690Z,58.8
2018-10-17T08:04:12.415Z,58.42
2018-10-17T08:05:12.528Z,58.8
2018-10-17T08:06:13.063Z,59.47
2018-10-17T08:07:12.683Z,59.25
2018-10-17T08:08:12.694Z,60.4
2018-10-17T08:09:12.448Z,61.33
2018-10-17T08:10:12.812Z,63.22
2018-10-17T08:11:12.437Z,64.72
2018-10-17T08:12:12.899Z,66.61
2018-10-17T08:13:12.457Z,68.3
2018-10-17T08:14:12.983Z,69.74
2018-10-17T08:15:12.584Z,70.76
2018-10-17T08:16:12.441Z,71.33
2018-10-17T08:17:12.695Z,71.97
2018-10-17T08:18:12.536Z,72.25
2018-10-17T08:19:12.710Z,72.83
2018-10-17T08:20:12.574Z,73.02
2018-10-17T08:21:12.787Z,73.65
2018-10-17T08:22:12.706Z,74.13
2018-10-17T08:23:12.457Z,74.61
2018-10-17T08:24:13.028Z,75.47
2018-10-17T08:25:12.815Z,75.47
2018-10-17T08:26:12.715Z,75.95
2018-10-17T08:27:12.735Z,76.9
2018-10-17T08:28:12.456Z,76.71
2018-10-17T08:29:12.701Z,76.62
2018-10-17T08:30:12.937Z,76.71
2018-10-17T08:31:12.698Z,76.52
2018-10-17T08:32:12.698Z,75.37
2018-10-17T08:33:12.704Z,75.66
2018-10-17T08:34:12.696Z,75.76
2018-10-17T08:35:12.797Z,76.23
2018-10-17T08:36:13.102Z,75.76
2018-10-17T08:37:12.793Z,75.85
2018-10-17T08:38:12.435Z,75.56
2018-10-17T08:39:12.693Z,74.8
2018-10-17T08:40:12.462Z,74.8
2018-10-17T08:41:13.021Z,74.51
2018-10-17T08:42:12.691Z,74.84
2018-10-17T08:43:12.434Z,75.12
2018-10-17T08:44:13.016Z,74.93
2018-10-17T08:45:12.718Z,74.74
2018-10-17T08:46:12.686Z,74.74
2018-10-17T08:47:12.687Z,74.74
2018-10-17T08:48:12.685Z,74.07
2018-10-17T08:49:12.430Z,73.88
2018-10-17T08:50:12.933Z,73.69
2018-10-17T08:51:12.808Z,73.59
2018-10-17T08:52:12.693Z,73.59
2018-10-17T08:53:12.677Z,73.69
2018-10-17T08:54:12.436Z,73.4
2018-10-17T08:55:12.674Z,73.21
2018-10-17T08:56:12.917Z,73.02
2018-10-17T08:57:12.680Z,73.34
2018-10-17T08:58:12.425Z,72.58
2018-10-17T08:59:12.684Z,72.67
2018-10-17T09:00:12.873Z,72.19
2018-10-17T09:01:12.680Z,72
2018-10-17T09:02:12.897Z,72.19
2018-10-17T09:03:12.671Z,71.42
2018-10-17T09:04:12.413Z,71.84
2018-10-17T09:05:12.734Z,71.56
2018-10-17T09:06:13.025Z,71.37
2018-10-17T09:07:12.422Z,71.17
2018-10-17T09:08:12.769Z,70.5
2018-10-17T09:09:12.445Z,69.93
2018-10-17T09:10:12.673Z,70.03
2018-10-17T09:11:12.673Z,69.83
2018-10-17T09:12:12.879Z,69.87
2018-10-17T09:13:12.687Z,69.68
2018-10-17T09:14:12.863Z,68.52
2018-10-17T09:15:12.861Z,67.76
2018-10-17T09:16:12.995Z,67.95
2018-10-17T09:17:12.421Z,67.76
2018-10-17T09:18:12.980Z,67.85
2018-10-17T09:19:12.726Z,67.66
2018-10-17T09:20:13.746Z,67.85
2018-10-17T09:21:13.482Z,67.76
2018-10-17T09:22:13.705Z,68.33
2018-10-17T09:23:12.407Z,67.76
2018-10-17T09:24:12.908Z,68.05
2018-10-17T09:25:12.511Z,67.85
2018-10-17T09:26:12.406Z,67.76
2018-10-17T09:27:12.666Z,68.08
2018-10-17T09:28:12.889Z,67.79
2018-10-17T09:29:12.412Z,67.69
2018-10-17T09:30:12.916Z,67.02
2018-10-17T09:31:12.666Z,67.12
2018-10-17T09:32:13.197Z,67.02
2018-10-17T09:33:12.656Z,67.22
2018-10-17T09:34:12.556Z,67.22
2018-10-17T09:35:12.556Z,67.02
2018-10-17T09:36:12.501Z,66.26
2018-10-17T09:37:12.669Z,66.55
2018-10-17T09:38:12.673Z,66.26
2018-10-17T09:39:12.399Z,66.39
2018-10-17T09:40:12.958Z,66.39
2018-10-17T09:41:12.654Z,66.1
2018-10-17T09:42:12.769Z,66.29
2018-10-17T09:43:12.748Z,66
2018-10-17T09:44:12.409Z,65.81
2018-10-17T09:45:12.709Z,65.91
2018-10-17T09:46:12.903Z,65.62
2018-10-17T09:47:12.399Z,65.52
2018-10-17T09:48:12.783Z,65.72
2018-10-17T09:49:12.671Z,66
2018-10-17T09:50:12.483Z,65.81
2018-10-17T09:51:12.664Z,66
2018-10-17T09:52:13.220Z,65.65
2018-10-17T09:53:12.729Z,64.98
2018-10-17T09:54:12.507Z,65.08
2018-10-17T09:55:12.739Z,64.89
2018-10-17T09:56:12.404Z,64.31
2018-10-17T09:57:12.447Z,64.5
2018-10-17T09:58:12.521Z,64.4
2018-10-17T09:59:12.660Z,64.31
2018-10-17T10:00:12.893Z,64.02
2018-10-17T10:01:12.408Z,64.43
2018-10-17T10:02:12.839Z,64.63
2018-10-17T10:03:12.668Z,64.53
2018-10-17T10:04:12.855Z,63.67
2018-10-17T10:05:12.852Z,64.05
2018-10-17T10:06:12.885Z,64.53
2018-10-17T10:07:12.411Z,64.82
2018-10-17T10:08:12.673Z,63.57
2018-10-17T10:09:12.669Z,63.57
2018-10-17T10:10:12.943Z,65.62
2018-10-17T10:11:12.803Z,64.76
2018-10-17T10:12:12.560Z,63.7
2018-10-17T10:13:12.679Z,63.02
2018-10-17T10:14:12.413Z,61.78
2018-10-17T10:15:12.447Z,62.16
2018-10-17T10:16:12.965Z,62.07
2018-10-17T10:17:12.978Z,62.07
2018-10-17T10:18:12.665Z,61.3
2018-10-17T10:19:12.428Z,61.68
2018-10-17T10:20:12.745Z,63.32
2018-10-17T10:21:12.425Z,62.19
2018-10-17T10:22:13.015Z,61.49
2018-10-17T10:23:12.927Z,61.4
2018-10-17T10:24:12.869Z,61.14
2018-10-17T10:25:12.871Z,60.46
2018-10-17T10:26:12.682Z,59.5
2018-10-17T10:27:12.686Z,61.33
2018-10-17T10:28:12.981Z,60.17
2018-10-17T10:29:12.684Z,59.69
2018-10-17T10:30:12.963Z,59.72
2018-10-17T10:31:12.687Z,59.72
2018-10-17T10:32:12.682Z,59.92
2018-10-17T10:33:12.685Z,60.3
2018-10-17T10:34:12.887Z,60.01
2018-10-17T10:35:12.792Z,58.37
2018-10-17T10:36:12.906Z,60.39
2018-10-17T10:37:12.438Z,59.15
2018-10-17T10:38:12.691Z,59.05
2018-10-17T10:39:12.686Z,59.34
2018-10-17T10:40:12.871Z,57.51
2018-10-17T10:41:12.704Z,57.13
2018-10-17T10:42:12.576Z,58.28
2018-10-17T10:43:12.716Z,58.95
2018-10-17T10:44:12.955Z,57.6
2018-10-17T10:45:13.042Z,58.67
2018-10-17T10:46:12.468Z,59.56
2018-10-17T10:47:12.714Z,57.15
2018-10-17T10:48:12.534Z,56.67
2018-10-17T10:49:12.871Z,56.58
2018-10-17T10:50:12.621Z,56.96
2018-10-17T10:51:12.946Z,58.31
2018-10-17T10:52:12.717Z,57.35
2018-10-17T10:53:12.725Z,59.47
2018-10-17T10:54:12.978Z,56.87
2018-10-17T10:55:12.490Z,56.1
2018-10-17T10:56:12.954Z,56.58
2018-10-17T10:57:13.009Z,57.25
2018-10-17T10:58:12.957Z,56
2018-10-17T10:59:12.537Z,56.29
2018-10-17T11:00:12.853Z,56.29
2018-10-17T11:01:12.735Z,56.2
2018-10-17T11:02:12.568Z,55.81
2018-10-17T11:03:13.058Z,55.71
2018-10-17T11:04:12.732Z,55.55
2018-10-17T11:05:12.695Z,54.97
2018-10-17T11:06:12.744Z,55.45
2018-10-17T11:07:12.744Z,54.97
2018-10-17T11:08:12.556Z,54.68
2018-10-17T11:09:12.750Z,54.78
2018-10-17T11:10:12.751Z,54.49
2018-10-17T11:11:13.056Z,54.58
2018-10-17T11:12:12.795Z,53.94
2018-10-17T11:13:12.774Z,53.72
2018-10-17T11:14:13.416Z,53.36
2018-10-17T11:15:12.540Z,53.45
2018-10-17T11:16:12.494Z,53.17
2018-10-17T11:17:12.909Z,53.17
2018-10-17T11:18:12.772Z,52.78
2018-10-17T11:19:12.758Z,52.87
2018-10-17T11:20:12.788Z,53.36
2018-10-17T11:21:12.555Z,53.17
2018-10-17T11:22:12.772Z,54.22
2018-10-17T11:23:13.093Z,56.35
2018-10-17T11:24:12.515Z,56.25
2018-10-17T11:25:12.771Z,55.48
2018-10-17T11:26:12.789Z,55.51
2018-10-17T11:27:13.029Z,54.44
2018-10-17T11:28:12.539Z,53.58
2018-10-17T11:29:12.648Z,53.09
2018-10-17T11:30:12.915Z,53
2018-10-17T11:31:12.536Z,52.42
2018-10-17T11:32:12.538Z,52.42
2018-10-17T11:33:13.107Z,52.71
2018-10-17T11:34:12.543Z,53.09
2018-10-17T11:35:13.100Z,53
2018-10-17T11:36:12.801Z,53.09
2018-10-17T11:37:12.802Z,52.71
2018-10-17T11:38:12.807Z,53.58
2018-10-17T11:39:12.968Z,52.71
2018-10-17T11:40:12.998Z,53
2018-10-17T11:41:13.197Z,52.33
2018-10-17T11:42:12.807Z,52.33
2018-10-17T11:43:12.814Z,53.19
2018-10-17T11:44:12.564Z,52.61
2018-10-17T11:45:13.144Z,52.23
2018-10-17T11:46:12.564Z,52.42
2018-10-17T11:47:12.619Z,52.42
2018-10-17T11:48:12.820Z,52.52
2018-10-17T11:49:12.828Z,52.52
2018-10-17T11:50:12.853Z,52.23
2018-10-17T11:51:13.019Z,51.84
2018-10-17T11:52:12.835Z,52.13
2018-10-17T11:53:13.109Z,52.04
2018-10-17T11:54:12.580Z,52.04
2018-10-17T11:55:12.923Z,51.94
2018-10-17T11:56:12.584Z,51.84
2018-10-17T11:57:12.654Z,51.46
2018-10-17T11:58:13.652Z,51.2
2018-10-17T11:59:12.935Z,51.2
2018-10-17T12:00:12.912Z,51
2018-10-17T12:01:12.864Z,51.48
2018-10-17T12:02:12.603Z,51.1
2018-10-17T12:03:13.336Z,52.06
2018-10-17T12:04:13.713Z,51.29
2018-10-17T12:05:12.875Z,51
2018-10-17T12:06:13.045Z,50.81
2018-10-17T12:07:12.863Z,50.9
2018-10-17T12:08:12.869Z,50.71
2018-10-17T12:09:13.180Z,50.71
2018-10-17T12:10:12.908Z,50.81
2018-10-17T12:11:12.965Z,50.74
2018-10-17T12:12:12.994Z,50.54
2018-10-17T12:13:12.893Z,50.74
2018-10-17T12:14:12.896Z,50.54
2018-10-17T12:15:13.246Z,50.54
2018-10-17T12:16:12.638Z,50.64
2018-10-17T12:17:12.896Z,50.45
2018-10-17T12:18:13.194Z,50.84
2018-10-17T12:19:13.323Z,50.16
2018-10-17T12:20:12.969Z,50.35
2018-10-17T12:21:13.354Z,50.26
2018-10-17T12:22:12.658Z,50.35
2018-10-17T12:23:12.955Z,49.58
2018-10-17T12:24:13.063Z,50.06
2018-10-17T12:25:12.914Z,50.54
2018-10-17T12:26:12.658Z,50.35
2018-10-17T12:27:13.188Z,50.35
2018-10-17T12:28:12.758Z,50.45
2018-10-17T12:29:12.919Z,50.35
2018-10-17T12:30:12.798Z,50.74
2018-10-17T12:31:12.926Z,50.64
2018-10-17T12:32:12.669Z,50.35
2018-10-17T12:33:13.130Z,50.26
2018-10-17T12:34:12.670Z,50.54
2018-10-17T12:35:12.822Z,50.16
2018-10-17T12:36:12.940Z,50.74
2018-10-17T12:37:12.687Z,50.93
2018-10-17T12:38:12.938Z,50.35
2018-10-17T12:39:13.089Z,49.87
2018-10-17T12:40:13.433Z,50.35
2018-10-17T12:41:13.224Z,50.06
2018-10-17T12:42:12.947Z,50.35
2018-10-17T12:43:12.963Z,50.54
2018-10-17T12:44:12.748Z,50.64
2018-10-17T12:45:12.744Z,50.54
2018-10-17T12:46:12.989Z,50.45
2018-10-17T12:47:13.145Z,50.64
2018-10-17T12:48:12.972Z,50.54
2018-10-17T12:49:12.866Z,50.06
2018-10-17T12:50:12.768Z,49.96
2018-10-17T12:51:12.974Z,49.77
2018-10-17T12:52:13.375Z,49.7
2018-10-17T12:53:13.278Z,49.8
2018-10-17T12:54:12.749Z,49.41
2018-10-17T12:55:12.815Z,49.22